createdAt,value
2022-11-05T00:00:35.497Z,10.48
2022-11-05T00:03:20.281Z,10.47
2022-11-05T00:06:08.266Z,10.46
2022-11-05T00:08:53.920Z,10.46
2022-11-05T00:11:40.361Z,10.43
2022-11-05T00:14:25.777Z,10.43
2022-11-05T00:16:52.125Z,10.41
2022-11-05T00:19:18.518Z,10.41
2022-11-05T00:22:03.503Z,10.40
2022-11-05T00:24:48.178Z,10.39
2022-11-05T00:27:14.643Z,10.38
2022-11-05T00:29:40.988Z,10.40
2022-11-05T00:32:07.385Z,10.39
2022-11-05T00:34:33.699Z,10.40
2022-11-05T00:37:00.129Z,10.40
2022-11-05T00:39:26.444Z,10.40
2022-11-05T00:42:11.111Z,10.39
2022-11-05T00:44:55.858Z,10.39
2022-11-05T00:47:40.518Z,10.39
2022-11-05T00:50:07.105Z,10.38
2022-11-05T00:52:52.042Z,10.38
2022-11-05T00:55:18.389Z,10.36
2022-11-05T00:57:44.688Z,10.34
2022-11-05T01:00:11.879Z,10.33
2022-11-05T01:02:38.334Z,10.33
2022-11-05T01:05:05.033Z,10.30
2022-11-05T01:07:31.408Z,10.28
2022-11-05T01:09:57.692Z,10.26
2022-11-05T01:12:23.988Z,10.26
2022-11-05T01:14:50.272Z,10.24
2022-11-05T01:17:16.891Z,10.24
2022-11-05T01:19:43.276Z,10.23
2022-11-05T01:22:09.615Z,10.22
2022-11-05T01:24:35.932Z,10.23
2022-11-05T01:27:02.229Z,10.23
2022-11-05T01:29:28.533Z,10.22
2022-11-05T01:31:54.844Z,10.22
2022-11-05T01:34:21.193Z,10.21
2022-11-05T01:36:47.507Z,10.20
2022-11-05T01:39:13.974Z,10.20
2022-11-05T01:41:40.282Z,10.18
2022-11-05T01:44:46.937Z,10.14
2022-11-05T01:47:36.333Z,10.14
2022-11-05T01:50:21.799Z,10.15
2022-11-05T01:52:52.338Z,10.16
2022-11-05T01:55:23.962Z,10.14
2022-11-05T01:57:53.718Z,10.13
2022-11-05T02:00:20.086Z,10.12
2022-11-05T02:02:47.473Z,10.12
2022-11-05T02:05:14.961Z,10.11
2022-11-05T02:07:44.888Z,10.08
2022-11-05T02:10:14.057Z,10.07
2022-11-05T02:12:43.797Z,10.06
2022-11-05T02:15:15.827Z,10.04
2022-11-05T02:17:53.957Z,10.04
2022-11-05T02:20:52.151Z,10.02
2022-11-05T02:23:33.231Z,10.04
2022-11-05T02:26:18.848Z,10.04
2022-11-05T02:29:09.645Z,10.03
2022-11-05T02:32:20.680Z,10.00
2022-11-05T02:35:00.010Z,9.99
2022-11-05T02:37:45.631Z,9.99
2022-11-05T02:40:27.417Z,9.94
2022-11-05T02:43:15.209Z,9.94
2022-11-05T02:46:02.736Z,9.90
2022-11-05T02:48:55.557Z,9.88
2022-11-05T02:51:32.246Z,9.89
2022-11-05T02:54:05.418Z,9.86
2022-11-05T02:56:39.421Z,9.83
2022-11-05T02:59:05.799Z,9.84
2022-11-05T03:01:32.300Z,9.83
2022-11-05T03:04:03.484Z,9.80
2022-11-05T03:06:54.524Z,9.76
2022-11-05T03:09:48.253Z,9.73
2022-11-05T03:12:26.948Z,9.70
2022-11-05T03:15:05.406Z,9.70
2022-11-05T03:17:58.002Z,9.67
2022-11-05T03:21:02.955Z,9.65
2022-11-05T03:23:38.289Z,9.65
2022-11-05T03:26:12.446Z,9.63
2022-11-05T03:28:43.121Z,9.62
2022-11-05T03:31:12.602Z,9.61
2022-11-05T03:33:41.536Z,9.60
2022-11-05T03:36:14.075Z,9.58
2022-11-05T03:38:46.665Z,9.58
2022-11-05T03:41:15.817Z,9.56
2022-11-05T03:43:47.427Z,9.55
2022-11-05T03:46:23.085Z,9.52
2022-11-05T03:48:54.392Z,9.55
2022-11-05T03:51:28.581Z,9.54
2022-11-05T03:54:00.677Z,9.54
2022-11-05T03:56:37.304Z,9.54
2022-11-05T03:59:06.600Z,9.56
2022-11-05T04:01:33.659Z,9.56
2022-11-05T04:04:00.214Z,9.55
2022-11-05T04:06:45.335Z,9.55
2022-11-05T04:09:30.361Z,9.54
2022-11-05T04:12:15.167Z,9.52
2022-11-05T04:14:41.638Z,9.50
2022-11-05T04:17:10.877Z,9.48
2022-11-05T04:19:58.719Z,9.47
2022-11-05T04:22:46.292Z,9.46
2022-11-05T04:25:14.306Z,9.45
2022-11-05T04:27:41.074Z,9.46
2022-11-05T04:30:20.796Z,9.45
2022-11-05T04:33:06.214Z,9.42
2022-11-05T04:35:46.725Z,9.44
2022-11-05T04:38:18.357Z,9.46
2022-11-05T04:40:46.169Z,9.48
2022-11-05T04:43:15.466Z,9.47
2022-11-05T04:45:42.675Z,9.48
2022-11-05T04:48:09.444Z,9.47
2022-11-05T04:50:36.235Z,9.46
2022-11-05T04:53:02.908Z,9.45
2022-11-05T04:55:29.487Z,9.42
2022-11-05T04:57:56.419Z,9.38
2022-11-05T05:00:23.875Z,9.35
2022-11-05T05:02:50.752Z,9.30
2022-11-05T05:05:17.532Z,9.27
2022-11-05T05:07:44.225Z,9.24
2022-11-05T05:10:11.275Z,9.22
2022-11-05T05:12:37.871Z,9.20
2022-11-05T05:15:05.023Z,9.18
2022-11-05T05:17:31.709Z,9.17
2022-11-05T05:20:16.772Z,9.16
2022-11-05T05:22:43.470Z,9.16
2022-11-05T05:25:10.039Z,9.15
2022-11-05T05:27:36.559Z,9.15
2022-11-05T05:30:03.459Z,9.14
2022-11-05T05:32:30.087Z,9.12
2022-11-05T05:34:56.718Z,9.09
2022-11-05T05:37:23.167Z,9.07
2022-11-05T05:39:49.810Z,9.05
2022-11-05T05:42:16.438Z,9.01
2022-11-05T05:44:43.035Z,8.96
2022-11-05T05:47:09.563Z,8.94
2022-11-05T05:49:36.109Z,8.92
2022-11-05T05:52:02.630Z,8.90
2022-11-05T05:54:32.661Z,8.86
2022-11-05T05:57:00.767Z,8.83
2022-11-05T05:59:27.461Z,8.78
2022-11-05T06:01:54.123Z,8.73
2022-11-05T06:04:20.709Z,8.67
2022-11-05T06:06:47.306Z,8.62
2022-11-05T06:09:14.645Z,8.52
2022-11-05T06:11:41.712Z,8.45
2022-11-05T06:14:12.491Z,8.33
2022-11-05T06:16:39.703Z,8.26
2022-11-05T06:19:07.181Z,8.16
2022-11-05T06:21:34.055Z,8.07
2022-11-05T06:24:02.334Z,8.00
2022-11-05T06:26:29.310Z,7.91
2022-11-05T06:28:56.034Z,7.84
2022-11-05T06:31:22.670Z,7.79
2022-11-05T06:33:49.209Z,7.74
2022-11-05T06:36:17.617Z,7.68
2022-11-05T06:38:44.400Z,7.65
2022-11-05T06:41:11.091Z,7.61
2022-11-05T06:43:37.845Z,7.56
2022-11-05T06:46:04.985Z,7.53
2022-11-05T06:48:31.650Z,7.49
2022-11-05T06:50:58.483Z,7.47
2022-11-05T06:53:25.601Z,7.44
2022-11-05T06:55:52.207Z,7.40
2022-11-05T06:58:18.929Z,7.37
2022-11-05T07:00:45.740Z,7.33
2022-11-05T07:03:13.108Z,7.30
2022-11-05T07:05:46.322Z,7.27
2022-11-05T07:08:12.872Z,7.25
2022-11-05T07:10:39.517Z,7.25
2022-11-05T07:13:08.422Z,7.25
2022-11-05T07:15:36.515Z,7.26
2022-11-05T07:18:04.487Z,7.25
2022-11-05T07:20:34.124Z,7.25
2022-11-05T07:23:02.245Z,7.26
2022-11-05T07:25:29.892Z,7.26
2022-11-05T07:27:56.584Z,7.28
2022-11-05T07:30:23.149Z,7.29
2022-11-05T07:32:49.673Z,7.30
2022-11-05T07:35:16.292Z,7.32
2022-11-05T07:37:47.874Z,7.33
2022-11-05T07:40:15.717Z,7.34
2022-11-05T07:42:47.164Z,7.35
2022-11-05T07:45:14.008Z,7.37
2022-11-05T07:47:47.807Z,7.37
2022-11-05T07:50:15.667Z,7.40
2022-11-05T07:52:42.464Z,7.41
2022-11-05T07:55:09.542Z,7.40
2022-11-05T07:57:46.942Z,7.39
2022-11-05T08:00:16.727Z,7.41
2022-11-05T08:02:43.784Z,7.44
2022-11-05T08:05:10.595Z,7.46
2022-11-05T08:07:37.201Z,7.46
2022-11-05T08:10:04.229Z,7.47
2022-11-05T08:12:32.414Z,7.49
2022-11-05T08:14:59.104Z,7.52
2022-11-05T08:17:25.742Z,7.54
2022-11-05T08:19:52.339Z,7.55
2022-11-05T08:22:18.792Z,7.58
2022-11-05T08:24:45.343Z,7.62
2022-11-05T08:27:11.852Z,7.63
2022-11-05T08:29:38.440Z,7.68
2022-11-05T08:32:05.116Z,7.69
2022-11-05T08:34:31.647Z,7.72
2022-11-05T08:37:00.815Z,7.75
2022-11-05T08:39:27.338Z,7.77
2022-11-05T08:41:54.062Z,7.82
2022-11-05T08:44:20.787Z,7.85
2022-11-05T08:46:47.391Z,7.91
2022-11-05T08:49:14.175Z,7.95
2022-11-05T08:51:40.671Z,8.00
2022-11-05T08:54:07.380Z,8.03
2022-11-05T08:56:33.968Z,8.06
2022-11-05T08:59:00.886Z,8.12
2022-11-05T09:01:27.585Z,8.15
2022-11-05T09:03:54.206Z,8.18
2022-11-05T09:06:20.756Z,8.21
2022-11-05T09:08:47.465Z,8.25
2022-11-05T09:11:13.971Z,8.28
2022-11-05T09:13:40.630Z,8.31
2022-11-05T09:16:13.604Z,8.34
2022-11-05T09:18:40.139Z,8.38
2022-11-05T09:21:06.716Z,8.45
2022-11-05T09:23:33.235Z,8.48
2022-11-05T09:25:59.821Z,8.53
2022-11-05T09:28:26.361Z,8.58
2022-11-05T09:30:53.234Z,8.61
2022-11-05T09:33:22.894Z,8.66
2022-11-05T09:35:49.661Z,8.72
2022-11-05T09:38:16.245Z,8.78
2022-11-05T09:41:06.065Z,8.82
2022-11-05T09:43:51.716Z,8.90
2022-11-05T09:46:23.321Z,8.96
2022-11-05T09:48:54.843Z,9.02
2022-11-05T09:53:49.833Z,9.16
2022-11-05T09:56:29.186Z,9.19
2022-11-05T09:59:03.003Z,9.30
2022-11-05T10:01:34.093Z,9.37
2022-11-05T10:04:07.687Z,9.46
2022-11-05T10:06:34.584Z,9.57
2022-11-05T10:09:11.066Z,9.65
2022-11-05T10:11:44.576Z,9.77
2022-11-05T10:14:20.861Z,9.89
2022-11-05T10:17:00.137Z,10.01
2022-11-05T10:19:50.195Z,10.17
2022-11-05T10:22:18.961Z,10.34
2022-11-05T10:24:50.669Z,10.46
2022-11-05T10:27:23.251Z,10.59
2022-11-05T10:29:50.501Z,10.73
2022-11-05T10:32:33.320Z,10.86
2022-11-05T10:35:02.641Z,11.03
2022-11-05T10:37:30.515Z,11.20
2022-11-05T10:39:57.431Z,11.34
2022-11-05T10:42:36.079Z,11.47
2022-11-05T10:45:18.698Z,11.65
2022-11-05T10:48:03.535Z,11.84
2022-11-05T10:50:30.857Z,12.06
2022-11-05T10:53:20.866Z,12.30
2022-11-05T10:55:50.441Z,12.63
2022-11-05T10:58:16.903Z,12.93
2022-11-05T11:00:45.780Z,13.16
2022-11-05T11:03:33.499Z,13.36
2022-11-05T11:06:37.660Z,13.60
2022-11-05T11:09:08.035Z,13.92
2022-11-05T11:11:40.503Z,14.24
2022-11-05T11:14:20.869Z,14.66
2022-11-05T11:16:51.149Z,15.22
2022-11-05T11:19:29.474Z,15.85
2022-11-05T11:22:05.173Z,16.53
2022-11-05T11:24:45.146Z,17.21
2022-11-05T11:27:16.582Z,17.93
2022-11-05T11:29:49.591Z,18.62
2022-11-05T11:32:19.703Z,19.28
2022-11-05T11:34:51.715Z,19.84
2022-11-05T11:37:27.419Z,20.37
2022-11-05T11:40:04.218Z,20.85
2022-11-05T11:42:37.665Z,21.15
2022-11-05T11:45:14.366Z,21.41
2022-11-05T11:47:44.485Z,21.68
2022-11-05T11:50:43.002Z,21.96
2022-11-05T11:53:21.659Z,22.21
2022-11-05T11:56:03.556Z,22.28
2022-11-05T11:59:00.925Z,22.25
2022-11-05T12:01:30.530Z,22.25
2022-11-05T12:04:13.946Z,22.31
2022-11-05T12:06:51.212Z,22.33
2022-11-05T12:09:21.920Z,22.34
2022-11-05T12:12:02.892Z,22.26
2022-11-05T12:15:00.487Z,22.12
2022-11-05T12:17:33.085Z,21.91
2022-11-05T12:20:14.865Z,21.74
2022-11-05T12:22:59.587Z,21.46
2022-11-05T12:25:38.108Z,21.34
2022-11-05T12:28:28.614Z,21.17
2022-11-05T12:31:07.073Z,21.04
2022-11-05T12:33:57.605Z,20.71
2022-11-05T12:37:03.853Z,20.37
2022-11-05T12:39:57.953Z,20.01
2022-11-05T12:42:30.408Z,19.70
2022-11-05T12:45:04.460Z,19.38
2022-11-05T12:47:42.937Z,19.02
2022-11-05T12:50:24.430Z,18.65
2022-11-05T12:53:01.853Z,18.36
2022-11-05T12:55:36.893Z,18.06
2022-11-05T12:58:12.345Z,17.83
2022-11-05T13:00:42.123Z,17.65
2022-11-05T13:03:25.588Z,17.46
2022-11-05T13:06:10.322Z,17.31
2022-11-05T13:08:44.566Z,17.22
2022-11-05T13:11:27.470Z,17.08
2022-11-05T13:14:02.526Z,16.99
2022-11-05T13:16:50.710Z,16.89
2022-11-05T13:19:30.041Z,16.82
2022-11-05T13:22:25.506Z,16.67
2022-11-05T13:25:04.616Z,16.57
2022-11-05T13:27:48.859Z,16.41
2022-11-05T13:30:20.104Z,16.32
2022-11-05T13:32:56.671Z,16.19
2022-11-05T13:35:29.786Z,16.07
2022-11-05T13:38:25.723Z,15.96
2022-11-05T13:40:55.355Z,15.83
2022-11-05T13:43:39.608Z,15.70
2022-11-05T13:46:41.474Z,15.62
2022-11-05T13:49:46.143Z,15.50
2022-11-05T13:52:18.335Z,15.46
2022-11-05T13:55:11.096Z,15.37
2022-11-05T13:57:40.522Z,15.32
2022-11-05T14:00:15.829Z,15.23
2022-11-05T14:02:48.059Z,15.19
2022-11-05T14:05:34.596Z,15.07
2022-11-05T14:08:09.125Z,15.04
2022-11-05T14:10:37.120Z,14.98
2022-11-05T14:13:16.101Z,14.92
2022-11-05T14:15:58.313Z,14.91
2022-11-05T14:18:24.748Z,14.98
2022-11-05T14:21:00.648Z,15.01
2022-11-05T14:23:28.490Z,15.12
2022-11-05T14:25:59.622Z,15.19
2022-11-05T14:28:35.278Z,15.24
2022-11-05T14:31:20.153Z,15.31
2022-11-05T14:34:20.367Z,15.36
2022-11-05T14:37:23.497Z,15.41
2022-11-05T14:39:50.908Z,15.47
2022-11-05T14:42:30.457Z,15.45
2022-11-05T14:44:56.997Z,15.45
2022-11-05T14:47:26.266Z,15.40
2022-11-05T14:50:01.620Z,15.30
2022-11-05T14:52:28.793Z,15.27
2022-11-05T14:54:57.321Z,15.16
2022-11-05T14:57:42.184Z,15.01
2022-11-05T15:00:30.348Z,14.90
2022-11-05T15:03:29.098Z,14.78
2022-11-05T15:06:23.595Z,14.69
2022-11-05T15:08:50.125Z,14.65
2022-11-05T15:11:40.803Z,14.52
2022-11-05T15:14:31.920Z,14.47
2022-11-05T15:17:19.777Z,14.35
2022-11-05T15:19:47.659Z,14.29
2022-11-05T15:22:30.154Z,14.14
2022-11-05T15:24:56.896Z,14.11
2022-11-05T15:27:23.387Z,14.03
2022-11-05T15:29:50.125Z,13.93
2022-11-05T15:32:18.658Z,13.88
2022-11-05T15:34:53.867Z,13.79
2022-11-05T15:37:26.283Z,13.77
2022-11-05T15:39:55.143Z,13.71
2022-11-05T15:42:23.803Z,13.66
2022-11-05T15:44:54.474Z,13.59
2022-11-05T15:47:31.011Z,13.55
2022-11-05T15:50:14.912Z,13.46
2022-11-05T15:52:53.829Z,13.40
2022-11-05T15:55:25.791Z,13.36
2022-11-05T15:57:59.959Z,13.32
2022-11-05T16:00:29.426Z,13.28
2022-11-05T16:03:01.106Z,13.23
2022-11-05T16:05:31.229Z,13.20
2022-11-05T16:07:59.654Z,13.15
2022-11-05T16:10:31.664Z,13.10
2022-11-05T16:13:36.839Z,13.05
2022-11-05T16:16:14.325Z,13.05
2022-11-05T16:18:42.301Z,13.02
2022-11-05T16:21:18.604Z,12.96
2022-11-05T16:23:45.193Z,12.94
2022-11-05T16:27:00.704Z,12.87
2022-11-05T16:29:22.846Z,12.87
2022-11-05T16:31:55.139Z,12.83
2022-11-05T16:34:37.756Z,12.79
2022-11-05T16:37:06.465Z,12.80
2022-11-05T16:39:33.629Z,12.77
2022-11-05T16:42:00.219Z,12.74
2022-11-05T16:44:26.812Z,12.72
2022-11-05T16:46:53.554Z,12.70
2022-11-05T16:49:20.379Z,12.69
2022-11-05T16:51:46.814Z,12.67
2022-11-05T16:54:13.321Z,12.66
2022-11-05T16:56:42.217Z,12.61
2022-11-05T16:59:12.779Z,12.58
2022-11-05T17:01:42.075Z,12.57
2022-11-05T17:04:11.647Z,12.55
2022-11-05T17:06:38.344Z,12.54
2022-11-05T17:09:04.955Z,12.52
2022-11-05T17:11:31.488Z,12.49
2022-11-05T17:13:58.008Z,12.49
2022-11-05T17:16:26.263Z,12.46
2022-11-05T17:18:52.763Z,12.46
2022-11-05T17:21:19.299Z,12.44
2022-11-05T17:23:45.888Z,12.43
2022-11-05T17:26:12.955Z,12.40
2022-11-05T17:28:40.622Z,12.38
2022-11-05T17:31:11.350Z,12.36
2022-11-05T17:33:38.058Z,12.35
2022-11-05T17:36:09.542Z,12.34
2022-11-05T17:38:36.088Z,12.35
2022-11-05T17:41:10.507Z,12.31
2022-11-05T17:43:37.042Z,12.32
2022-11-05T17:46:10.886Z,12.30
2022-11-05T17:48:39.028Z,12.29
2022-11-05T17:51:10.028Z,12.25
2022-11-05T17:53:36.918Z,12.25
2022-11-05T17:56:11.270Z,12.21
2022-11-05T17:58:38.473Z,12.23
2022-11-05T18:01:06.035Z,12.23
2022-11-05T18:03:32.975Z,12.23
2022-11-05T18:06:06.398Z,12.20
2022-11-05T18:08:33.645Z,12.23
2022-11-05T18:11:00.201Z,12.23
2022-11-05T18:13:26.740Z,12.22
2022-11-05T18:15:54.271Z,12.21
2022-11-05T18:18:21.530Z,12.22
2022-11-05T18:20:48.138Z,12.23
2022-11-05T18:23:15.121Z,12.23
2022-11-05T18:25:41.969Z,12.24
2022-11-05T18:28:08.739Z,12.24
2022-11-05T18:30:38.321Z,12.22
2022-11-05T18:33:04.842Z,12.23
2022-11-05T18:35:31.358Z,12.22
2022-11-05T18:37:58.022Z,12.22
2022-11-05T18:40:24.441Z,12.21
2022-11-05T18:42:51.004Z,12.20
2022-11-05T18:45:17.490Z,12.18
2022-11-05T18:47:44.102Z,12.17
2022-11-05T18:50:10.700Z,12.16
2022-11-05T18:52:37.189Z,12.15
2022-11-05T18:55:03.861Z,12.14
2022-11-05T18:57:33.563Z,12.13
2022-11-05T19:00:00.513Z,12.13
2022-11-05T19:02:27.146Z,12.12
2022-11-05T19:05:27.341Z,12.11
2022-11-05T19:07:40.624Z,12.12
2022-11-05T19:10:08.444Z,12.10
2022-11-05T19:12:35.200Z,12.10
2022-11-05T19:15:02.984Z,12.07
2022-11-05T19:17:30.756Z,12.07
2022-11-05T19:19:57.271Z,12.07
2022-11-05T19:22:24.013Z,12.07
2022-11-05T19:24:50.555Z,12.07
2022-11-05T19:27:17.354Z,12.07
2022-11-05T19:29:43.830Z,12.08
2022-11-05T19:32:10.678Z,12.10
2022-11-05T19:34:37.592Z,12.09
2022-11-05T19:37:07.205Z,12.10
2022-11-05T19:39:35.269Z,12.09
2022-11-05T19:42:03.677Z,12.08
2022-11-05T19:44:30.723Z,12.08
2022-11-05T19:46:57.262Z,12.06
2022-11-05T19:49:23.932Z,12.05
2022-11-05T19:51:50.992Z,12.04
2022-11-05T19:54:17.694Z,12.04
2022-11-05T19:56:44.264Z,12.02
2022-11-05T19:59:11.631Z,12.00
2022-11-05T20:01:38.726Z,11.98
2022-11-05T20:04:05.803Z,11.95
2022-11-05T20:06:36.799Z,11.92
2022-11-05T20:09:22.017Z,11.90
2022-11-05T20:11:49.841Z,11.89
2022-11-05T20:14:16.417Z,11.85
2022-11-05T20:16:42.982Z,11.83
2022-11-05T20:19:12.837Z,11.81
2022-11-05T20:21:39.742Z,11.80
2022-11-05T20:24:06.830Z,11.80
2022-11-05T20:26:33.963Z,11.79
2022-11-05T20:29:00.911Z,11.81
2022-11-05T20:31:27.404Z,11.82
2022-11-05T20:33:54.440Z,11.83
2022-11-05T20:36:22.940Z,11.85
2022-11-05T20:38:51.445Z,11.86
2022-11-05T20:41:18.676Z,11.88
2022-11-05T20:43:46.677Z,11.89
2022-11-05T20:46:16.374Z,11.88
2022-11-05T20:48:43.893Z,11.89
2022-11-05T20:51:16.360Z,11.87
2022-11-05T20:53:43.699Z,11.89
2022-11-05T20:56:22.731Z,11.86
2022-11-05T20:58:50.322Z,11.90
2022-11-05T21:01:18.223Z,11.90
2022-11-05T21:03:46.355Z,11.90
2022-11-05T21:06:13.772Z,11.89
2022-11-05T21:08:40.644Z,11.89
2022-11-05T21:11:07.898Z,11.88
2022-11-05T21:13:34.880Z,11.88
2022-11-05T21:16:01.723Z,11.86
2022-11-05T21:18:30.995Z,11.84
2022-11-05T21:20:59.748Z,11.83
2022-11-05T21:23:27.460Z,11.84
2022-11-05T21:25:54.361Z,11.84
2022-11-05T21:28:20.973Z,11.84
2022-11-05T21:30:48.950Z,11.84
2022-11-05T21:33:16.996Z,11.84
2022-11-05T21:35:45.976Z,11.85
2022-11-05T21:38:15.115Z,11.84
2022-11-05T21:40:42.416Z,11.85
2022-11-05T21:43:09.506Z,11.84
2022-11-05T21:45:41.992Z,11.84
2022-11-05T21:48:09.518Z,11.86
2022-11-05T21:50:57.668Z,11.83
2022-11-05T21:53:42.836Z,11.86
2022-11-05T21:56:40.383Z,11.83
2022-11-05T21:59:25.584Z,11.88
2022-11-05T22:02:01.212Z,11.88
2022-11-05T22:04:34.650Z,11.86
2022-11-05T22:07:01.329Z,11.85
2022-11-05T22:09:28.608Z,11.90
2022-11-05T22:11:55.576Z,11.89
2022-11-05T22:14:22.782Z,11.88
2022-11-05T22:16:49.534Z,11.86
2022-11-05T22:19:16.174Z,11.86
2022-11-05T22:21:42.918Z,11.85
2022-11-05T22:24:09.931Z,11.85
2022-11-05T22:26:38.260Z,11.85
2022-11-05T22:29:05.840Z,11.85
2022-11-05T22:31:36.264Z,11.85
2022-11-05T22:34:04.412Z,11.85
2022-11-05T22:36:31.815Z,11.83
2022-11-05T22:38:58.455Z,11.84
2022-11-05T22:41:25.276Z,11.84
2022-11-05T22:43:51.849Z,11.84
2022-11-05T22:46:21.757Z,11.82
2022-11-05T22:48:48.929Z,11.83
2022-11-05T22:51:31.002Z,11.78
2022-11-05T22:53:58.906Z,11.83
2022-11-05T22:56:28.051Z,11.81
2022-11-05T22:58:55.049Z,11.81
2022-11-05T23:01:23.231Z,11.82
2022-11-05T23:03:51.706Z,11.80
2022-11-05T23:06:45.489Z,11.78
2022-11-05T23:09:37.173Z,11.78
2022-11-05T23:12:05.988Z,11.78
2022-11-05T23:14:32.585Z,11.77
2022-11-05T23:17:17.285Z,11.75
2022-11-05T23:20:02.793Z,11.74
2022-11-05T23:22:49.930Z,11.74
2022-11-05T23:25:21.664Z,11.73
2022-11-05T23:27:50.169Z,11.72
2022-11-05T23:30:22.637Z,11.71
2022-11-05T23:32:50.062Z,11.73
2022-11-05T23:35:17.068Z,11.72
2022-11-05T23:38:02.603Z,11.72
2022-11-05T23:40:30.904Z,11.70
2022-11-05T23:43:16.586Z,11.70
2022-11-05T23:45:59.090Z,11.69
2022-11-05T23:48:34.311Z,11.66
2022-11-05T23:51:06.770Z,11.67
2022-11-05T23:53:34.906Z,11.67
2022-11-05T23:56:04.612Z,11.67
2022-11-05T23:58:32.115Z,11.67
